createdAt,value
2023-03-06T00:01:45.589Z,2.55
2023-03-06T00:04:30.446Z,2.35
2023-03-06T00:07:21.598Z,2.75
2023-03-06T00:10:07.040Z,2.70
2023-03-06T00:13:05.622Z,2.50
2023-03-06T00:15:59.619Z,1.92
2023-03-06T00:18:51.632Z,2.92
2023-03-06T00:21:36.546Z,2.55
2023-03-06T00:24:27.621Z,2.25
2023-03-06T00:27:12.646Z,2.57
2023-03-06T00:30:05.630Z,2.75
2023-03-06T00:32:53.878Z,2.60
2023-03-06T00:35:46.637Z,2.78
2023-03-06T00:38:38.668Z,2.75
2023-03-06T00:41:36.604Z,2.90
2023-03-06T00:44:21.406Z,2.60
2023-03-06T00:47:13.619Z,3.20
2023-03-06T00:49:58.536Z,2.10
2023-03-06T00:52:49.618Z,3.22
2023-03-06T00:55:37.068Z,3.93
2023-03-06T00:58:28.634Z,3.08
2023-03-06T01:01:19.693Z,3.17
2023-03-06T01:04:04.981Z,3.58
2023-03-06T01:06:56.613Z,2.65
2023-03-06T01:09:48.624Z,2.57
2023-03-06T01:12:40.605Z,2.55
2023-03-06T01:15:25.744Z,3.25
2023-03-06T01:18:16.630Z,2.47
2023-03-06T01:21:08.627Z,3.38
2023-03-06T01:24:00.606Z,2.70
2023-03-06T01:26:51.598Z,2.72
2023-03-06T01:29:42.632Z,2.95
2023-03-06T01:32:33.656Z,3.65
2023-03-06T01:35:18.659Z,3.42
2023-03-06T01:38:10.614Z,3.07
2023-03-06T01:41:01.640Z,3.58
2023-03-06T01:43:47.285Z,4.10
2023-03-06T01:46:49.603Z,3.90
2023-03-06T01:49:37.490Z,3.63
2023-03-06T01:52:32.620Z,3.83
2023-03-06T01:55:20.921Z,3.58
2023-03-06T01:58:18.617Z,3.97
2023-03-06T02:01:10.651Z,4.35
2023-03-06T02:03:56.010Z,4.55
2023-03-06T02:06:50.615Z,4.00
2023-03-06T02:09:37.530Z,4.85
2023-03-06T02:12:29.622Z,5.40
2023-03-06T02:15:17.209Z,4.95
2023-03-06T02:18:08.618Z,5.25
2023-03-06T02:20:57.295Z,4.40
2023-03-06T02:24:21.619Z,5.57
2023-03-06T02:27:11.602Z,4.50
2023-03-06T02:30:03.625Z,3.58
2023-03-06T02:32:48.478Z,5.05
2023-03-06T02:35:42.699Z,5.90
2023-03-06T02:38:38.276Z,5.57
2023-03-06T02:41:37.642Z,5.53
2023-03-06T02:44:30.641Z,4.60
2023-03-06T02:47:15.599Z,5.45
2023-03-06T02:50:07.630Z,5.33
2023-03-06T02:52:52.517Z,4.50
2023-03-06T02:55:44.644Z,3.45
2023-03-06T02:58:29.798Z,4.00
2023-03-06T03:01:21.649Z,4.85
2023-03-06T03:04:12.669Z,6.37
2023-03-06T03:06:57.542Z,6.20
2023-03-06T03:09:49.635Z,3.63
2023-03-06T03:12:34.602Z,4.97
2023-03-06T03:15:25.634Z,6.20
2023-03-06T03:18:11.517Z,4.53
2023-03-06T03:21:05.628Z,5.05
2023-03-06T03:23:50.749Z,5.30
2023-03-06T03:26:42.629Z,5.90
2023-03-06T03:29:27.938Z,5.57
2023-03-06T03:32:19.703Z,7.03
2023-03-06T03:35:06.805Z,6.85
2023-03-06T03:37:58.626Z,6.15
2023-03-06T03:40:49.843Z,7.35
2023-03-06T03:43:41.632Z,6.43
2023-03-06T03:46:29.256Z,6.50
2023-03-06T03:49:21.641Z,6.40
2023-03-06T03:52:06.824Z,6.28
2023-03-06T03:54:58.676Z,7.60
2023-03-06T03:57:43.428Z,6.53
2023-03-06T04:00:34.641Z,6.70
2023-03-06T04:03:19.658Z,6.05
2023-03-06T04:06:11.641Z,5.90
2023-03-06T04:08:56.923Z,4.20
2023-03-06T04:11:48.646Z,6.43
2023-03-06T04:14:34.012Z,6.77
2023-03-06T04:17:25.656Z,4.15
2023-03-06T04:20:11.330Z,6.57
2023-03-06T04:23:02.644Z,6.57
2023-03-06T04:25:48.012Z,6.38
2023-03-06T04:28:39.642Z,6.70
2023-03-06T04:31:31.691Z,8.52
2023-03-06T04:34:16.668Z,7.38
2023-03-06T04:37:08.653Z,4.80
2023-03-06T04:40:06.648Z,6.90
2023-03-06T04:43:05.641Z,4.83
2023-03-06T04:45:57.700Z,7.22
2023-03-06T04:48:49.644Z,3.85
2023-03-06T04:51:36.718Z,3.85
2023-03-06T04:54:28.637Z,6.18
2023-03-06T04:57:14.078Z,7.20
2023-03-06T05:00:07.438Z,5.10
2023-03-06T05:02:53.766Z,6.03
2023-03-06T05:05:51.650Z,3.17
2023-03-06T05:08:42.624Z,5.32
2023-03-06T05:11:27.781Z,6.77
2023-03-06T05:14:19.646Z,7.63
2023-03-06T05:17:05.954Z,7.75
2023-03-06T05:19:57.630Z,7.57
2023-03-06T05:22:50.650Z,7.15
2023-03-06T05:25:38.849Z,7.53
2023-03-06T05:28:30.629Z,8.10
2023-03-06T05:31:16.301Z,8.40
2023-03-06T05:34:07.640Z,8.55
2023-03-06T05:36:52.737Z,9.32
2023-03-06T05:39:43.646Z,7.93
2023-03-06T05:42:37.697Z,8.48
2023-03-06T05:45:28.659Z,8.85
2023-03-06T05:48:20.637Z,8.80
2023-03-06T05:51:06.268Z,8.35
2023-03-06T05:53:57.674Z,8.20
2023-03-06T05:56:42.983Z,8.65
2023-03-06T05:59:35.645Z,8.95
2023-03-06T06:02:20.893Z,9.38
2023-03-06T06:05:13.285Z,7.68
2023-03-06T06:08:04.670Z,8.80
2023-03-06T06:10:53.189Z,7.97
2023-03-06T06:13:46.641Z,8.55
2023-03-06T06:16:31.501Z,7.18
2023-03-06T06:19:26.661Z,9.00
2023-03-06T06:22:12.213Z,8.90
2023-03-06T06:25:04.607Z,10.18
2023-03-06T06:27:49.879Z,8.15
2023-03-06T06:30:41.670Z,8.45
2023-03-06T06:33:26.679Z,10.02
2023-03-06T06:36:25.672Z,5.23
2023-03-06T06:39:32.653Z,8.88
2023-03-06T06:42:38.253Z,9.48
2023-03-06T06:45:24.616Z,9.15
2023-03-06T06:48:17.925Z,7.45
2023-03-06T06:51:03.291Z,7.00
2023-03-06T06:53:57.627Z,8.10
2023-03-06T06:56:49.653Z,9.65
2023-03-06T06:59:41.686Z,8.90
2023-03-06T07:02:26.813Z,6.13
2023-03-06T07:05:20.230Z,9.13
2023-03-06T07:08:06.095Z,9.35
2023-03-06T07:10:57.678Z,9.40
2023-03-06T07:13:42.389Z,9.48
2023-03-06T07:16:34.683Z,9.38
2023-03-06T07:19:19.387Z,9.20
2023-03-06T07:22:11.659Z,8.65
2023-03-06T07:24:56.894Z,9.23
2023-03-06T07:27:53.364Z,7.85
2023-03-06T07:30:42.251Z,6.55
2023-03-06T07:33:33.674Z,2.83
2023-03-06T07:36:19.302Z,8.05
2023-03-06T07:39:10.686Z,7.80
2023-03-06T07:42:02.128Z,2.97
2023-03-06T07:44:53.682Z,8.57
2023-03-06T07:47:39.536Z,8.43
2023-03-06T07:50:31.672Z,7.55
2023-03-06T07:53:16.845Z,8.48
2023-03-06T07:56:15.708Z,9.02
2023-03-06T07:59:01.307Z,8.85
2023-03-06T08:01:52.678Z,7.63
2023-03-06T08:04:44.728Z,9.15
2023-03-06T08:07:30.720Z,9.20
2023-03-06T08:10:22.665Z,6.18
2023-03-06T08:13:09.966Z,9.90
2023-03-06T08:16:02.691Z,9.87
2023-03-06T08:18:54.719Z,10.30
2023-03-06T08:21:47.904Z,9.45
2023-03-06T08:24:34.411Z,9.23
2023-03-06T08:27:25.685Z,9.25
2023-03-06T08:30:10.995Z,9.67
2023-03-06T08:33:02.682Z,9.52
2023-03-06T08:35:48.018Z,7.22
2023-03-06T08:38:39.691Z,8.07
2023-03-06T08:41:31.717Z,8.60
2023-03-06T08:44:22.692Z,9.60
2023-03-06T08:47:10.102Z,8.93
2023-03-06T08:50:01.671Z,7.68
2023-03-06T08:52:46.594Z,9.55
2023-03-06T08:55:38.682Z,8.75
2023-03-06T08:58:23.545Z,7.27
2023-03-06T09:01:20.727Z,7.45
2023-03-06T09:04:08.616Z,7.68
2023-03-06T09:06:59.693Z,8.73
2023-03-06T09:09:47.248Z,4.53
2023-03-06T09:12:49.840Z,8.10
2023-03-06T09:15:35.976Z,9.38
2023-03-06T09:18:27.692Z,8.52
2023-03-06T09:21:12.568Z,8.75
2023-03-06T09:24:06.707Z,8.93
2023-03-06T09:26:57.687Z,5.93
2023-03-06T09:29:49.706Z,8.73
2023-03-06T09:32:34.516Z,9.40
2023-03-06T09:35:25.686Z,9.65
2023-03-06T09:38:10.774Z,8.15
2023-03-06T09:41:05.685Z,9.27
2023-03-06T09:43:53.906Z,8.18
2023-03-06T09:47:01.691Z,8.43
2023-03-06T09:50:21.138Z,7.55
2023-03-06T09:53:43.687Z,8.38
2023-03-06T09:56:32.668Z,7.50
2023-03-06T09:59:30.707Z,5.90
2023-03-06T10:02:26.619Z,6.07
2023-03-06T10:05:29.730Z,7.72
2023-03-06T10:08:58.710Z,6.05
2023-03-06T10:11:54.690Z,7.70
2023-03-06T10:15:06.698Z,6.63
2023-03-06T10:17:52.209Z,7.00
2023-03-06T10:20:56.964Z,6.93
2023-03-06T10:24:00.701Z,6.53
2023-03-06T10:26:55.073Z,6.93
2023-03-06T10:30:02.794Z,6.03
2023-03-06T10:33:06.016Z,7.45
2023-03-06T10:36:02.758Z,7.50
2023-03-06T10:38:55.711Z,7.78
2023-03-06T10:42:01.717Z,6.97
2023-03-06T10:44:52.758Z,2.22
2023-03-06T10:47:40.530Z,5.97
2023-03-06T10:50:34.743Z,6.18
2023-03-06T10:53:26.407Z,7.43
2023-03-06T10:56:17.720Z,4.57
2023-03-06T10:59:14.942Z,8.02
2023-03-06T11:02:35.720Z,4.93
2023-03-06T11:05:20.893Z,7.40
2023-03-06T11:08:28.709Z,7.38
2023-03-06T11:11:36.362Z,5.57
2023-03-06T11:14:31.717Z,6.38
2023-03-06T11:17:34.710Z,5.22
2023-03-06T11:20:52.985Z,4.88
2023-03-06T11:23:48.705Z,7.28
2023-03-06T11:26:41.110Z,5.30
2023-03-06T11:29:40.788Z,6.57
2023-03-06T11:32:39.765Z,5.32
2023-03-06T11:35:28.263Z,8.05
2023-03-06T11:38:28.705Z,6.50
2023-03-06T11:41:48.709Z,6.47
2023-03-06T11:45:13.715Z,7.10
2023-03-06T11:48:24.716Z,7.43
2023-03-06T11:51:33.134Z,6.93
2023-03-06T11:54:24.709Z,7.43
2023-03-06T11:57:19.818Z,7.53
2023-03-06T12:00:42.725Z,3.95
2023-03-06T12:03:45.100Z,4.90
2023-03-06T12:06:44.723Z,5.80
2023-03-06T12:09:52.740Z,7.40
2023-03-06T12:13:20.019Z,8.40
2023-03-06T12:16:30.745Z,7.18
2023-03-06T12:19:27.806Z,7.32
2023-03-06T12:22:38.718Z,7.05
2023-03-06T12:25:40.735Z,6.72
2023-03-06T12:28:34.948Z,6.93
2023-03-06T12:31:57.738Z,8.10
2023-03-06T12:35:07.147Z,6.15
2023-03-06T12:38:35.735Z,6.20
2023-03-06T12:41:59.744Z,7.00
2023-03-06T12:45:16.527Z,6.97
2023-03-06T12:48:08.717Z,6.85
2023-03-06T12:50:54.202Z,6.57
2023-03-06T12:53:51.973Z,6.70
2023-03-06T12:56:39.445Z,5.35
2023-03-06T12:59:54.736Z,6.63
2023-03-06T13:02:51.157Z,6.95
2023-03-06T13:06:05.765Z,5.68
2023-03-06T13:09:15.739Z,6.47
2023-03-06T13:12:42.786Z,5.15
2023-03-06T13:15:51.758Z,5.53
2023-03-06T13:18:39.348Z,5.25
2023-03-06T13:22:02.975Z,5.22
2023-03-06T13:25:23.767Z,5.43
2023-03-06T13:28:26.171Z,5.72
2023-03-06T13:31:33.623Z,5.70
2023-03-06T13:34:36.065Z,6.30
2023-03-06T13:37:29.753Z,6.40
2023-03-06T13:40:48.820Z,6.95
2023-03-06T13:43:47.750Z,6.57
2023-03-06T13:46:37.072Z,5.97
2023-03-06T13:49:30.721Z,6.07
2023-03-06T13:52:39.746Z,6.00
2023-03-06T13:55:33.917Z,7.38
2023-03-06T13:59:01.734Z,6.35
2023-03-06T14:02:07.226Z,6.47
2023-03-06T14:05:05.252Z,6.65
2023-03-06T14:08:17.741Z,6.43
2023-03-06T14:11:15.382Z,6.80
2023-03-06T14:14:00.526Z,6.22
2023-03-06T14:16:56.737Z,5.47
2023-03-06T14:19:48.739Z,5.40
2023-03-06T14:22:40.733Z,5.55
2023-03-06T14:25:30.536Z,4.63
2023-03-06T14:28:36.735Z,5.53
2023-03-06T14:31:24.426Z,6.40
2023-03-06T14:34:27.734Z,5.45
2023-03-06T14:37:28.813Z,5.65
2023-03-06T14:40:40.736Z,5.55
2023-03-06T14:43:33.753Z,5.22
2023-03-06T14:46:21.556Z,3.90
2023-03-06T14:49:13.768Z,5.75
2023-03-06T14:52:02.168Z,6.28
2023-03-06T14:54:54.764Z,6.70
2023-03-06T14:57:39.776Z,6.32
2023-03-06T15:00:35.842Z,6.43
2023-03-06T15:03:33.908Z,6.80
2023-03-06T15:06:28.753Z,6.40
2023-03-06T15:09:26.776Z,5.93
2023-03-06T15:12:21.096Z,6.55
2023-03-06T15:15:34.754Z,6.10
2023-03-06T15:18:36.744Z,5.63
2023-03-06T15:21:24.011Z,4.80
2023-03-06T15:24:42.744Z,6.32
2023-03-06T15:27:36.747Z,5.80
2023-03-06T15:30:39.748Z,5.83
2023-03-06T15:33:26.478Z,6.00
2023-03-06T15:36:33.761Z,5.38
2023-03-06T15:39:41.764Z,5.97
2023-03-06T15:42:40.759Z,5.88
2023-03-06T15:45:31.534Z,4.00
2023-03-06T15:48:23.774Z,6.05
2023-03-06T15:51:15.849Z,5.80
2023-03-06T15:54:11.936Z,5.53
2023-03-06T15:57:03.767Z,7.05
2023-03-06T15:59:49.166Z,6.40
2023-03-06T16:02:40.770Z,6.07
2023-03-06T16:05:33.762Z,6.57
2023-03-06T16:08:18.984Z,6.18
2023-03-06T16:11:10.755Z,6.72
2023-03-06T16:14:04.777Z,6.00
2023-03-06T16:16:58.792Z,6.80
2023-03-06T16:19:44.043Z,6.60
2023-03-06T16:22:35.774Z,6.47
2023-03-06T16:25:22.697Z,7.00
2023-03-06T16:28:22.827Z,7.07
2023-03-06T16:31:17.755Z,7.10
2023-03-06T16:34:03.108Z,6.22
2023-03-06T16:36:55.764Z,6.55
2023-03-06T16:39:40.845Z,7.25
2023-03-06T16:42:38.769Z,6.53
2023-03-06T16:45:30.610Z,6.95
2023-03-06T16:48:23.776Z,6.38
2023-03-06T16:51:14.847Z,6.43
2023-03-06T16:54:09.796Z,6.78
2023-03-06T16:57:00.770Z,6.80
2023-03-06T16:59:51.790Z,6.47
2023-03-06T17:02:50.184Z,6.88
2023-03-06T17:05:36.518Z,7.05
2023-03-06T17:08:27.776Z,4.65
2023-03-06T17:11:19.762Z,5.20
2023-03-06T17:14:07.048Z,6.97
2023-03-06T17:16:59.765Z,6.65
2023-03-06T17:19:55.777Z,5.15
2023-03-06T17:22:41.472Z,6.78
2023-03-06T17:25:32.787Z,5.80
2023-03-06T17:28:18.013Z,4.18
2023-03-06T17:31:30.855Z,6.13
2023-03-06T17:34:23.628Z,6.30
2023-03-06T17:37:09.939Z,6.20
2023-03-06T17:40:00.799Z,6.10
2023-03-06T17:42:51.840Z,6.35
2023-03-06T17:45:42.784Z,5.80
2023-03-06T17:48:27.646Z,6.45
2023-03-06T17:51:19.815Z,6.13
2023-03-06T17:54:11.782Z,5.73
2023-03-06T17:57:00.846Z,5.93
2023-03-06T17:59:54.787Z,6.00
2023-03-06T18:02:39.682Z,5.78
2023-03-06T18:05:30.783Z,5.82
2023-03-06T18:08:22.979Z,5.70
2023-03-06T18:11:09.664Z,6.70
2023-03-06T18:14:05.284Z,7.43
2023-03-06T18:16:50.560Z,6.75
2023-03-06T18:19:41.778Z,7.65
2023-03-06T18:22:32.769Z,6.23
2023-03-06T18:25:23.801Z,6.82
2023-03-06T18:28:09.045Z,7.22
2023-03-06T18:31:00.793Z,6.85
2023-03-06T18:33:48.495Z,5.72
2023-03-06T18:36:40.807Z,6.57
2023-03-06T18:39:25.928Z,7.55
2023-03-06T18:42:23.784Z,6.45
2023-03-06T18:45:10.179Z,6.07
2023-03-06T18:48:01.798Z,6.40
2023-03-06T18:50:47.022Z,6.10
2023-03-06T18:53:38.806Z,6.15
2023-03-06T18:56:23.902Z,6.20
2023-03-06T18:59:17.603Z,4.07
2023-03-06T19:02:03.942Z,5.97
2023-03-06T19:04:55.804Z,5.30
2023-03-06T19:07:46.773Z,6.25
2023-03-06T19:10:41.793Z,6.95
2023-03-06T19:13:26.861Z,7.57
2023-03-06T19:16:25.881Z,6.35
2023-03-06T19:19:20.624Z,6.50
2023-03-06T19:22:05.935Z,6.72
2023-03-06T19:24:57.800Z,7.55
2023-03-06T19:27:50.785Z,7.22
2023-03-06T19:30:39.997Z,4.97
2023-03-06T19:33:34.810Z,5.13
2023-03-06T19:36:32.357Z,3.40
2023-03-06T19:39:18.600Z,4.93
2023-03-06T19:42:16.813Z,4.28
2023-03-06T19:45:01.891Z,1.48
2023-03-06T19:47:53.790Z,5.40
2023-03-06T19:50:42.285Z,4.38
2023-03-06T19:53:34.797Z,3.67
2023-03-06T19:56:22.188Z,4.07
2023-03-06T19:59:13.826Z,3.75
2023-03-06T20:01:58.750Z,2.67
2023-03-06T20:04:49.866Z,4.20
2023-03-06T20:07:37.974Z,3.40
2023-03-06T20:10:29.799Z,2.72
2023-03-06T20:13:14.522Z,4.25
2023-03-06T20:16:08.889Z,4.57
2023-03-06T20:18:55.176Z,4.00
2023-03-06T20:21:46.820Z,3.28
2023-03-06T20:24:31.709Z,3.90
2023-03-06T20:27:22.810Z,3.97
2023-03-06T20:30:14.813Z,5.50
2023-03-06T20:32:59.865Z,4.60
2023-03-06T20:35:51.831Z,4.78
2023-03-06T20:38:43.789Z,5.55
2023-03-06T20:41:49.836Z,3.92
2023-03-06T20:44:42.791Z,5.00
2023-03-06T20:47:27.690Z,3.60
2023-03-06T20:50:21.802Z,5.07
2023-03-06T20:53:06.875Z,1.95
2023-03-06T20:55:58.803Z,4.10
2023-03-06T20:58:44.020Z,4.03
2023-03-06T21:01:42.012Z,1.30
2023-03-06T21:04:26.949Z,2.92
2023-03-06T21:07:19.810Z,3.97
2023-03-06T21:10:12.813Z,4.32
2023-03-06T21:13:04.823Z,4.67
2023-03-06T21:15:49.902Z,5.65
2023-03-06T21:18:44.796Z,4.97
2023-03-06T21:21:32.913Z,5.70
2023-03-06T21:24:23.829Z,3.60
2023-03-06T21:27:15.836Z,4.27
2023-03-06T21:30:06.820Z,6.13
2023-03-06T21:32:58.832Z,5.32
2023-03-06T21:35:51.821Z,4.75
2023-03-06T21:38:37.568Z,7.50
2023-03-06T21:41:31.830Z,6.57
2023-03-06T21:44:32.789Z,4.45
2023-03-06T21:47:18.142Z,6.88
2023-03-06T21:50:09.817Z,4.47
2023-03-06T21:52:56.147Z,6.38
2023-03-06T21:55:47.822Z,3.80
2023-03-06T21:58:33.226Z,3.67
2023-03-06T22:01:30.820Z,4.07
2023-03-06T22:04:16.097Z,4.45
2023-03-06T22:07:06.822Z,3.85
2023-03-06T22:09:59.815Z,5.43
2023-03-06T22:12:46.436Z,6.47
2023-03-06T22:15:37.818Z,7.35
2023-03-06T22:18:28.841Z,7.07
2023-03-06T22:21:20.576Z,4.40
2023-03-06T22:24:12.817Z,5.90
2023-03-06T22:26:57.774Z,7.93
2023-03-06T22:29:48.821Z,6.35
2023-03-06T22:32:34.582Z,3.33
2023-03-06T22:35:28.834Z,6.45
2023-03-06T22:38:15.801Z,4.60
2023-03-06T22:41:07.817Z,4.65
2023-03-06T22:44:12.824Z,4.72
2023-03-06T22:46:58.166Z,4.25
2023-03-06T22:49:49.813Z,5.47
2023-03-06T22:52:35.076Z,6.40
2023-03-06T22:55:26.810Z,5.68
2023-03-06T22:58:11.902Z,5.80
2023-03-06T23:01:02.822Z,5.63
2023-03-06T23:03:56.837Z,5.82
2023-03-06T23:06:43.125Z,3.53
2023-03-06T23:09:34.812Z,4.63
2023-03-06T23:12:19.539Z,5.10
2023-03-06T23:15:11.815Z,2.80
2023-03-06T23:17:57.057Z,4.45
2023-03-06T23:20:50.819Z,2.03
2023-03-06T23:23:37.192Z,5.45
2023-03-06T23:26:31.828Z,3.75
2023-03-06T23:29:16.883Z,6.13
2023-03-06T23:32:08.878Z,3.60
2023-03-06T23:34:54.103Z,4.50
2023-03-06T23:37:45.838Z,4.68
2023-03-06T23:40:37.824Z,3.72
2023-03-06T23:43:38.668Z,4.35
2023-03-06T23:46:31.075Z,5.00
2023-03-06T23:49:16.506Z,4.73
2023-03-06T23:52:08.830Z,2.70
2023-03-06T23:55:00.837Z,3.45
2023-03-06T23:57:52.852Z,1.88
